Dry Creek, Louisiana
Current Conditions -  °F | °C
As of 12:15 PM on Friday 31 Oct 2014 (Local Time) from KDRI Reporting Station
Clear Clear  
Wind Chill: 71°   Ceiling: Unl
Heat Index: 71°   Visibility: 10mi
Dew Point: 44°   Wind: 12mph
Humidity: 39%   Direction: 350°N
Pressure: 30.17"   Gusts: 16mph
Location:  30.67°N, 93.05°W
Report Text: KDRI 311715Z AUTO 35010G14KT 10SM CLR 22/07 A3017 RMK AO2 T02160069
Loading
Personal Weather Stations






























Interactive Weather Map
Tropical Storm Tracking
New forecast layout! Learn more

10-Day Weather Forecast

Advertisements
Track Severe Weather on mobile